sensor_id;sensor_type;location;lat;lon;timestamp;P1;durP1;ratioP1;P2;durP2;ratioP2
15931;SDS011;8065;49.520;11.284;2023-05-29T00:00:58;4.07;;;3.13;;
15931;SDS011;8065;49.520;11.284;2023-05-29T00:03:25;4.33;;;3.07;;
15931;SDS011;8065;49.520;11.284;2023-05-29T00:05:51;4.57;;;3.13;;
15931;SDS011;8065;49.520;11.284;2023-05-29T00:08:19;4.10;;;3.13;;
15931;SDS011;8065;49.520;11.284;2023-05-29T00:10:46;8.10;;;3.50;;
15931;SDS011;8065;49.520;11.284;2023-05-29T00:13:12;4.97;;;3.07;;
15931;SDS011;8065;49.520;11.284;2023-05-29T00:15:39;4.80;;;3.30;;
15931;SDS011;8065;49.520;11.284;2023-05-29T00:18:06;7.03;;;3.20;;
15931;SDS011;8065;49.520;11.284;2023-05-29T00:20:32;4.53;;;3.00;;
15931;SDS011;8065;49.520;11.284;2023-05-29T00:22:59;3.93;;;2.80;;
15931;SDS011;8065;49.520;11.284;2023-05-29T00:25:28;4.03;;;3.23;;
15931;SDS011;8065;49.520;11.284;2023-05-29T00:27:55;4.87;;;3.20;;
15931;SDS011;8065;49.520;11.284;2023-05-29T00:30:22;4.70;;;3.47;;
15931;SDS011;8065;49.520;11.284;2023-05-29T00:32:49;4.43;;;3.10;;
15931;SDS011;8065;49.520;11.284;2023-05-29T00:35:17;4.70;;;3.03;;
15931;SDS011;8065;49.520;11.284;2023-05-29T00:37:43;4.50;;;2.90;;
15931;SDS011;8065;49.520;11.284;2023-05-29T00:40:10;3.23;;;2.93;;
15931;SDS011;8065;49.520;11.284;2023-05-29T00:42:38;4.93;;;3.30;;
15931;SDS011;8065;49.520;11.284;2023-05-29T00:45:05;4.90;;;3.10;;
15931;SDS011;8065;49.520;11.284;2023-05-29T00:47:33;4.83;;;3.07;;
15931;SDS011;8065;49.520;11.284;2023-05-29T00:49:59;5.93;;;3.87;;
15931;SDS011;8065;49.520;11.284;2023-05-29T00:52:27;3.67;;;2.90;;
15931;SDS011;8065;49.520;11.284;2023-05-29T00:54:54;3.80;;;3.03;;
15931;SDS011;8065;49.520;11.284;2023-05-29T00:57:21;4.70;;;3.17;;
15931;SDS011;8065;49.520;11.284;2023-05-29T00:59:50;4.10;;;3.07;;
15931;SDS011;8065;49.520;11.284;2023-05-29T01:02:17;3.77;;;3.00;;
15931;SDS011;8065;49.520;11.284;2023-05-29T01:04:44;6.93;;;3.13;;
15931;SDS011;8065;49.520;11.284;2023-05-29T01:07:11;4.33;;;3.33;;
15931;SDS011;8065;49.520;11.284;2023-05-29T01:09:39;6.50;;;2.93;;
15931;SDS011;8065;49.520;11.284;2023-05-29T01:12:08;6.33;;;2.87;;
15931;SDS011;8065;49.520;11.284;2023-05-29T01:14:48;5.10;;;3.20;;
15931;SDS011;8065;49.520;11.284;2023-05-29T01:17:28;5.10;;;2.87;;
15931;SDS011;8065;49.520;11.284;2023-05-29T01:20:08;4.23;;;3.10;;
15931;SDS011;8065;49.520;11.284;2023-05-29T01:22:58;5.07;;;3.03;;
15931;SDS011;8065;49.520;11.284;2023-05-29T01:25:37;5.97;;;3.30;;
15931;SDS011;8065;49.520;11.284;2023-05-29T01:28:35;7.13;;;3.30;;
15931;SDS011;8065;49.520;11.284;2023-05-29T01:31:07;4.00;;;3.07;;
15931;SDS011;8065;49.520;11.284;2023-05-29T01:33:38;4.13;;;2.80;;
15931;SDS011;8065;49.520;11.284;2023-05-29T01:36:05;4.13;;;2.80;;
15931;SDS011;8065;49.520;11.284;2023-05-29T01:38:33;3.23;;;2.93;;
15931;SDS011;8065;49.520;11.284;2023-05-29T01:40:59;4.07;;;2.80;;
15931;SDS011;8065;49.520;11.284;2023-05-29T01:43:26;7.63;;;3.20;;
15931;SDS011;8065;49.520;11.284;2023-05-29T01:45:55;4.83;;;3.10;;
15931;SDS011;8065;49.520;11.284;2023-05-29T01:48:22;5.70;;;3.43;;
15931;SDS011;8065;49.520;11.284;2023-05-29T01:50:49;4.53;;;3.17;;
15931;SDS011;8065;49.520;11.284;2023-05-29T01:53:16;3.67;;;2.90;;
15931;SDS011;8065;49.520;11.284;2023-05-29T01:55:42;5.43;;;3.37;;
15931;SDS011;8065;49.520;11.284;2023-05-29T01:58:09;5.63;;;3.37;;
15931;SDS011;8065;49.520;11.284;2023-05-29T02:00:37;4.13;;;3.13;;
15931;SDS011;8065;49.520;11.284;2023-05-29T02:03:06;4.30;;;2.97;;
15931;SDS011;8065;49.520;11.284;2023-05-29T02:05:33;3.80;;;3.10;;
15931;SDS011;8065;49.520;11.284;2023-05-29T02:07:59;5.53;;;3.20;;
15931;SDS011;8065;49.520;11.284;2023-05-29T02:10:26;4.47;;;3.17;;
15931;SDS011;8065;49.520;11.284;2023-05-29T02:12:52;4.77;;;3.37;;
15931;SDS011;8065;49.520;11.284;2023-05-29T02:15:19;4.23;;;2.80;;
15931;SDS011;8065;49.520;11.284;2023-05-29T02:17:45;5.13;;;3.30;;
15931;SDS011;8065;49.520;11.284;2023-05-29T02:20:13;4.83;;;3.10;;
15931;SDS011;8065;49.520;11.284;2023-05-29T02:22:40;3.90;;;3.10;;
15931;SDS011;8065;49.520;11.284;2023-05-29T02:25:07;5.13;;;3.30;;
15931;SDS011;8065;49.520;11.284;2023-05-29T02:27:34;4.70;;;3.27;;
15931;SDS011;8065;49.520;11.284;2023-05-29T02:30:00;4.40;;;3.00;;
15931;SDS011;8065;49.520;11.284;2023-05-29T02:32:27;5.27;;;3.30;;
15931;SDS011;8065;49.520;11.284;2023-05-29T02:34:54;6.27;;;3.37;;
15931;SDS011;8065;49.520;11.284;2023-05-29T02:37:22;5.10;;;3.23;;
15931;SDS011;8065;49.520;11.284;2023-05-29T02:39:50;4.77;;;3.40;;
15931;SDS011;8065;49.520;11.284;2023-05-29T02:42:17;10.43;;;3.53;;
15931;SDS011;8065;49.520;11.284;2023-05-29T02:44:43;4.53;;;3.33;;
15931;SDS011;8065;49.520;11.284;2023-05-29T02:47:10;4.60;;;3.03;;
15931;SDS011;8065;49.520;11.284;2023-05-29T02:49:37;3.90;;;3.20;;
15931;SDS011;8065;49.520;11.284;2023-05-29T02:52:03;4.70;;;3.23;;
15931;SDS011;8065;49.520;11.284;2023-05-29T02:54:31;8.47;;;3.20;;
15931;SDS011;8065;49.520;11.284;2023-05-29T02:56:58;4.07;;;3.13;;
15931;SDS011;8065;49.520;11.284;2023-05-29T02:59:24;4.63;;;3.00;;
15931;SDS011;8065;49.520;11.284;2023-05-29T03:01:51;5.93;;;3.30;;
15931;SDS011;8065;49.520;11.284;2023-05-29T03:04:18;5.77;;;3.50;;
15931;SDS011;8065;49.520;11.284;2023-05-29T03:06:44;4.77;;;3.00;;
15931;SDS011;8065;49.520;11.284;2023-05-29T03:09:12;4.30;;;3.40;;
15931;SDS011;8065;49.520;11.284;2023-05-29T03:11:40;4.77;;;3.30;;
15931;SDS011;8065;49.520;11.284;2023-05-29T03:14:06;4.80;;;3.33;;
15931;SDS011;8065;49.520;11.284;2023-05-29T03:16:33;6.97;;;3.50;;
15931;SDS011;8065;49.520;11.284;2023-05-29T03:19:00;6.20;;;3.27;;
15931;SDS011;8065;49.520;11.284;2023-05-29T03:21:27;4.73;;;3.67;;
15931;SDS011;8065;49.520;11.284;2023-05-29T03:23:54;4.87;;;3.20;;
15931;SDS011;8065;49.520;11.284;2023-05-29T03:26:20;6.40;;;3.30;;
15931;SDS011;8065;49.520;11.284;2023-05-29T03:28:48;5.37;;;3.70;;
15931;SDS011;8065;49.520;11.284;2023-05-29T03:31:15;4.23;;;3.37;;
15931;SDS011;8065;49.520;11.284;2023-05-29T03:33:41;3.20;;;2.90;;
15931;SDS011;8065;49.520;11.284;2023-05-29T03:36:08;6.53;;;3.50;;
15931;SDS011;8065;49.520;11.284;2023-05-29T03:38:35;5.27;;;2.97;;
15931;SDS011;8065;49.520;11.284;2023-05-29T03:41:02;4.63;;;3.20;;
15931;SDS011;8065;49.520;11.284;2023-05-29T03:43:29;4.77;;;3.40;;
15931;SDS011;8065;49.520;11.284;2023-05-29T03:45:57;6.67;;;3.67;;
15931;SDS011;8065;49.520;11.284;2023-05-29T03:48:23;5.33;;;3.20;;
15931;SDS011;8065;49.520;11.284;2023-05-29T03:50:50;6.97;;;3.87;;
15931;SDS011;8065;49.520;11.284;2023-05-29T03:53:16;4.73;;;3.20;;
15931;SDS011;8065;49.520;11.284;2023-05-29T03:55:42;6.87;;;3.67;;
15931;SDS011;8065;49.520;11.284;2023-05-29T03:58:09;4.27;;;3.53;;
15931;SDS011;8065;49.520;11.284;2023-05-29T04:00:37;4.23;;;3.30;;
15931;SDS011;8065;49.520;11.284;2023-05-29T04:03:05;7.13;;;3.57;;
15931;SDS011;8065;49.520;11.284;2023-05-29T04:05:32;5.73;;;3.30;;
15931;SDS011;8065;49.520;11.284;2023-05-29T04:07:58;5.13;;;3.50;;
15931;SDS011;8065;49.520;11.284;2023-05-29T04:10:25;5.57;;;3.50;;
15931;SDS011;8065;49.520;11.284;2023-05-29T04:12:52;4.33;;;3.20;;
15931;SDS011;8065;49.520;11.284;2023-05-29T04:15:18;5.43;;;3.80;;
15931;SDS011;8065;49.520;11.284;2023-05-29T04:17:46;4.50;;;3.27;;
15931;SDS011;8065;49.520;11.284;2023-05-29T04:20:14;5.27;;;3.50;;
15931;SDS011;8065;49.520;11.284;2023-05-29T04:22:41;6.63;;;3.60;;
15931;SDS011;8065;49.520;11.284;2023-05-29T04:25:08;4.03;;;3.50;;
15931;SDS011;8065;49.520;11.284;2023-05-29T04:27:34;5.50;;;3.37;;
15931;SDS011;8065;49.520;11.284;2023-05-29T04:30:02;5.73;;;3.80;;
15931;SDS011;8065;49.520;11.284;2023-05-29T04:32:29;4.13;;;3.20;;
15931;SDS011;8065;49.520;11.284;2023-05-29T04:34:56;6.90;;;3.63;;
15931;SDS011;8065;49.520;11.284;2023-05-29T04:37:28;5.87;;;3.70;;
15931;SDS011;8065;49.520;11.284;2023-05-29T04:39:55;4.73;;;3.73;;
15931;SDS011;8065;49.520;11.284;2023-05-29T04:42:21;5.63;;;3.97;;
15931;SDS011;8065;49.520;11.284;2023-05-29T04:44:49;6.43;;;3.60;;
15931;SDS011;8065;49.520;11.284;2023-05-29T04:47:17;5.47;;;3.77;;
15931;SDS011;8065;49.520;11.284;2023-05-29T04:49:44;4.37;;;3.33;;
15931;SDS011;8065;49.520;11.284;2023-05-29T04:52:13;4.37;;;3.47;;
15931;SDS011;8065;49.520;11.284;2023-05-29T04:54:41;4.63;;;3.70;;
15931;SDS011;8065;49.520;11.284;2023-05-29T04:57:08;6.00;;;3.60;;
15931;SDS011;8065;49.520;11.284;2023-05-29T04:59:35;4.10;;;3.50;;
15931;SDS011;8065;49.520;11.284;2023-05-29T05:02:01;4.40;;;3.27;;
15931;SDS011;8065;49.520;11.284;2023-05-29T05:04:28;6.90;;;3.40;;
15931;SDS011;8065;49.520;11.284;2023-05-29T05:06:55;5.23;;;3.63;;
15931;SDS011;8065;49.520;11.284;2023-05-29T05:09:21;6.10;;;3.70;;
15931;SDS011;8065;49.520;11.284;2023-05-29T05:11:49;9.03;;;3.60;;
15931;SDS011;8065;49.520;11.284;2023-05-29T05:14:15;7.77;;;4.10;;
15931;SDS011;8065;49.520;11.284;2023-05-29T05:16:42;6.03;;;3.30;;
15931;SDS011;8065;49.520;11.284;2023-05-29T05:19:08;4.63;;;3.47;;
15931;SDS011;8065;49.520;11.284;2023-05-29T05:21:34;6.27;;;3.40;;
15931;SDS011;8065;49.520;11.284;2023-05-29T05:24:01;7.03;;;3.60;;
15931;SDS011;8065;49.520;11.284;2023-05-29T05:26:27;4.73;;;3.33;;
15931;SDS011;8065;49.520;11.284;2023-05-29T05:28:55;4.93;;;3.50;;
15931;SDS011;8065;49.520;11.284;2023-05-29T05:31:22;7.13;;;3.90;;
15931;SDS011;8065;49.520;11.284;2023-05-29T05:33:49;3.60;;;3.30;;
15931;SDS011;8065;49.520;11.284;2023-05-29T05:36:15;5.87;;;3.80;;
15931;SDS011;8065;49.520;11.284;2023-05-29T05:38:42;6.10;;;3.83;;
15931;SDS011;8065;49.520;11.284;2023-05-29T05:41:08;4.80;;;3.67;;
15931;SDS011;8065;49.520;11.284;2023-05-29T05:43:35;5.37;;;3.50;;
15931;SDS011;8065;49.520;11.284;2023-05-29T05:46:03;4.40;;;3.50;;
15931;SDS011;8065;49.520;11.284;2023-05-29T05:48:29;5.23;;;3.50;;
15931;SDS011;8065;49.520;11.284;2023-05-29T05:50:56;4.80;;;3.40;;
15931;SDS011;8065;49.520;11.284;2023-05-29T05:53:22;5.47;;;3.40;;
15931;SDS011;8065;49.520;11.284;2023-05-29T05:55:49;4.13;;;3.13;;
15931;SDS011;8065;49.520;11.284;2023-05-29T05:58:16;6.60;;;3.50;;
15931;SDS011;8065;49.520;11.284;2023-05-29T06:00:42;3.60;;;3.30;;
15931;SDS011;8065;49.520;11.284;2023-05-29T06:03:10;4.20;;;3.40;;
15931;SDS011;8065;49.520;11.284;2023-05-29T06:05:36;3.23;;;2.90;;
15931;SDS011;8065;49.520;11.284;2023-05-29T06:08:06;6.13;;;3.43;;
15931;SDS011;8065;49.520;11.284;2023-05-29T06:10:33;5.73;;;3.63;;
15931;SDS011;8065;49.520;11.284;2023-05-29T06:12:59;4.17;;;3.23;;
15931;SDS011;8065;49.520;11.284;2023-05-29T06:15:26;5.27;;;3.40;;
15931;SDS011;8065;49.520;11.284;2023-05-29T06:17:53;5.80;;;3.50;;
15931;SDS011;8065;49.520;11.284;2023-05-29T06:20:22;6.87;;;3.73;;
15931;SDS011;8065;49.520;11.284;2023-05-29T06:22:48;5.63;;;3.60;;
15931;SDS011;8065;49.520;11.284;2023-05-29T06:25:15;5.13;;;3.60;;
15931;SDS011;8065;49.520;11.284;2023-05-29T06:27:42;4.87;;;3.33;;
15931;SDS011;8065;49.520;11.284;2023-05-29T06:30:09;4.77;;;3.20;;
15931;SDS011;8065;49.520;11.284;2023-05-29T06:32:36;5.50;;;3.27;;
15931;SDS011;8065;49.520;11.284;2023-05-29T06:35:03;5.93;;;2.87;;
15931;SDS011;8065;49.520;11.284;2023-05-29T06:37:32;3.93;;;3.10;;
15931;SDS011;8065;49.520;11.284;2023-05-29T06:39:59;5.20;;;2.77;;
15931;SDS011;8065;49.520;11.284;2023-05-29T06:42:25;4.07;;;2.97;;
15931;SDS011;8065;49.520;11.284;2023-05-29T06:44:52;6.00;;;3.03;;
15931;SDS011;8065;49.520;11.284;2023-05-29T06:47:18;6.27;;;3.33;;
15931;SDS011;8065;49.520;11.284;2023-05-29T06:49:45;5.90;;;3.17;;
15931;SDS011;8065;49.520;11.284;2023-05-29T06:52:11;3.87;;;2.93;;
15931;SDS011;8065;49.520;11.284;2023-05-29T06:54:39;3.70;;;3.30;;
15931;SDS011;8065;49.520;11.284;2023-05-29T06:57:06;5.00;;;3.17;;
15931;SDS011;8065;49.520;11.284;2023-05-29T06:59:33;5.73;;;3.10;;
15931;SDS011;8065;49.520;11.284;2023-05-29T07:01:59;7.97;;;3.20;;
15931;SDS011;8065;49.520;11.284;2023-05-29T07:04:26;4.87;;;2.97;;
15931;SDS011;8065;49.520;11.284;2023-05-29T07:06:52;4.43;;;3.30;;
15931;SDS011;8065;49.520;11.284;2023-05-29T07:09:19;4.90;;;2.67;;
15931;SDS011;8065;49.520;11.284;2023-05-29T07:11:47;4.13;;;2.80;;
15931;SDS011;8065;49.520;11.284;2023-05-29T07:14:13;3.20;;;2.90;;
15931;SDS011;8065;49.520;11.284;2023-05-29T07:16:40;4.27;;;2.60;;
15931;SDS011;8065;49.520;11.284;2023-05-29T07:19:07;3.33;;;3.00;;
15931;SDS011;8065;49.520;11.284;2023-05-29T07:21:33;2.73;;;2.53;;
15931;SDS011;8065;49.520;11.284;2023-05-29T07:24:00;4.40;;;2.93;;
15931;SDS011;8065;49.520;11.284;2023-05-29T07:26:27;3.30;;;2.80;;
15931;SDS011;8065;49.520;11.284;2023-05-29T07:28:54;6.73;;;2.93;;
15931;SDS011;8065;49.520;11.284;2023-05-29T07:31:21;4.93;;;2.60;;
15931;SDS011;8065;49.520;11.284;2023-05-29T07:33:47;4.30;;;2.80;;
15931;SDS011;8065;49.520;11.284;2023-05-29T07:36:15;4.67;;;2.90;;
15931;SDS011;8065;49.520;11.284;2023-05-29T07:38:41;4.53;;;2.77;;
15931;SDS011;8065;49.520;11.284;2023-05-29T07:41:08;4.83;;;3.10;;
15931;SDS011;8065;49.520;11.284;2023-05-29T07:43:34;3.63;;;3.07;;
15931;SDS011;8065;49.520;11.284;2023-05-29T07:46:02;3.93;;;3.03;;
15931;SDS011;8065;49.520;11.284;2023-05-29T07:48:29;6.27;;;2.80;;
15931;SDS011;8065;49.520;11.284;2023-05-29T07:50:55;4.20;;;2.87;;
15931;SDS011;8065;49.520;11.284;2023-05-29T07:53:22;5.07;;;2.80;;
15931;SDS011;8065;49.520;11.284;2023-05-29T07:55:48;4.83;;;3.03;;
15931;SDS011;8065;49.520;11.284;2023-05-29T07:58:15;3.10;;;2.80;;
15931;SDS011;8065;49.520;11.284;2023-05-29T08:00:43;5.27;;;2.87;;
15931;SDS011;8065;49.520;11.284;2023-05-29T08:03:11;3.67;;;2.73;;
15931;SDS011;8065;49.520;11.284;2023-05-29T08:05:37;4.90;;;2.90;;
15931;SDS011;8065;49.520;11.284;2023-05-29T08:08:04;3.73;;;2.67;;
15931;SDS011;8065;49.520;11.284;2023-05-29T08:10:31;4.20;;;2.70;;
15931;SDS011;8065;49.520;11.284;2023-05-29T08:12:58;4.80;;;2.87;;
15931;SDS011;8065;49.520;11.284;2023-05-29T08:15:24;4.97;;;2.97;;
15931;SDS011;8065;49.520;11.284;2023-05-29T08:17:51;5.23;;;2.73;;
15931;SDS011;8065;49.520;11.284;2023-05-29T08:20:19;3.67;;;2.73;;
15931;SDS011;8065;49.520;11.284;2023-05-29T08:22:45;4.20;;;2.70;;
15931;SDS011;8065;49.520;11.284;2023-05-29T08:25:12;3.13;;;2.43;;
15931;SDS011;8065;49.520;11.284;2023-05-29T08:27:39;5.17;;;2.97;;
15931;SDS011;8065;49.520;11.284;2023-05-29T08:30:06;3.67;;;3.10;;
15931;SDS011;8065;49.520;11.284;2023-05-29T08:32:33;3.23;;;2.77;;
15931;SDS011;8065;49.520;11.284;2023-05-29T08:35:00;3.33;;;2.70;;
15931;SDS011;8065;49.520;11.284;2023-05-29T08:37:27;3.30;;;2.90;;
15931;SDS011;8065;49.520;11.284;2023-05-29T08:39:54;3.53;;;2.80;;
15931;SDS011;8065;49.520;11.284;2023-05-29T08:42:21;2.73;;;2.33;;
15931;SDS011;8065;49.520;11.284;2023-05-29T08:44:57;5.43;;;3.13;;
15931;SDS011;8065;49.520;11.284;2023-05-29T08:47:28;2.97;;;2.57;;
15931;SDS011;8065;49.520;11.284;2023-05-29T08:49:59;3.67;;;2.63;;
15931;SDS011;8065;49.520;11.284;2023-05-29T08:52:29;3.70;;;2.63;;
15931;SDS011;8065;49.520;11.284;2023-05-29T08:55:00;2.80;;;2.57;;
15931;SDS011;8065;49.520;11.284;2023-05-29T08:57:27;4.87;;;2.87;;
15931;SDS011;8065;49.520;11.284;2023-05-29T08:59:54;3.00;;;2.70;;
15931;SDS011;8065;49.520;11.284;2023-05-29T09:02:22;3.13;;;2.83;;
15931;SDS011;8065;49.520;11.284;2023-05-29T09:04:49;3.73;;;2.47;;
15931;SDS011;8065;49.520;11.284;2023-05-29T09:07:17;5.03;;;2.60;;
15931;SDS011;8065;49.520;11.284;2023-05-29T09:09:46;4.60;;;2.67;;
15931;SDS011;8065;49.520;11.284;2023-05-29T09:12:13;3.17;;;2.60;;
15931;SDS011;8065;49.520;11.284;2023-05-29T09:14:41;5.00;;;2.70;;
15931;SDS011;8065;49.520;11.284;2023-05-29T09:17:09;4.53;;;2.90;;
15931;SDS011;8065;49.520;11.284;2023-05-29T09:19:36;3.63;;;2.43;;
15931;SDS011;8065;49.520;11.284;2023-05-29T09:22:05;4.67;;;2.87;;
15931;SDS011;8065;49.520;11.284;2023-05-29T09:24:33;3.30;;;3.00;;
15931;SDS011;8065;49.520;11.284;2023-05-29T09:27:03;4.00;;;2.97;;
15931;SDS011;8065;49.520;11.284;2023-05-29T09:29:32;2.93;;;2.73;;
15931;SDS011;8065;49.520;11.284;2023-05-29T09:31:59;2.70;;;2.50;;
15931;SDS011;8065;49.520;11.284;2023-05-29T09:34:26;4.67;;;2.57;;
15931;SDS011;8065;49.520;11.284;2023-05-29T09:37:00;4.63;;;2.87;;
15931;SDS011;8065;49.520;11.284;2023-05-29T09:39:33;3.17;;;2.87;;
15931;SDS011;8065;49.520;11.284;2023-05-29T09:41:59;5.17;;;2.70;;
15931;SDS011;8065;49.520;11.284;2023-05-29T09:44:27;3.10;;;2.70;;
15931;SDS011;8065;49.520;11.284;2023-05-29T09:46:57;3.27;;;2.70;;
15931;SDS011;8065;49.520;11.284;2023-05-29T09:49:25;2.97;;;2.67;;
15931;SDS011;8065;49.520;11.284;2023-05-29T09:51:52;2.87;;;2.30;;
15931;SDS011;8065;49.520;11.284;2023-05-29T09:54:20;3.30;;;2.53;;
15931;SDS011;8065;49.520;11.284;2023-05-29T09:56:46;2.50;;;2.30;;
15931;SDS011;8065;49.520;11.284;2023-05-29T09:59:13;4.73;;;2.67;;
15931;SDS011;8065;49.520;11.284;2023-05-29T10:01:44;4.27;;;2.93;;
15931;SDS011;8065;49.520;11.284;2023-05-29T10:04:11;3.53;;;2.30;;
15931;SDS011;8065;49.520;11.284;2023-05-29T10:06:43;4.00;;;2.70;;
15931;SDS011;8065;49.520;11.284;2023-05-29T10:09:14;2.67;;;2.47;;
15931;SDS011;8065;49.520;11.284;2023-05-29T10:11:44;4.23;;;2.43;;
15931;SDS011;8065;49.520;11.284;2023-05-29T10:14:14;2.53;;;2.30;;
15931;SDS011;8065;49.520;11.284;2023-05-29T10:16:46;2.70;;;2.50;;
15931;SDS011;8065;49.520;11.284;2023-05-29T10:19:14;3.83;;;2.70;;
15931;SDS011;8065;49.520;11.284;2023-05-29T10:21:47;3.63;;;2.43;;
15931;SDS011;8065;49.520;11.284;2023-05-29T10:24:15;6.63;;;2.87;;
15931;SDS011;8065;49.520;11.284;2023-05-29T10:26:43;2.70;;;2.50;;
15931;SDS011;8065;49.520;11.284;2023-05-29T10:29:17;4.90;;;2.70;;
15931;SDS011;8065;49.520;11.284;2023-05-29T10:32:00;2.90;;;2.33;;
15931;SDS011;8065;49.520;11.284;2023-05-29T10:34:34;3.10;;;2.50;;
15931;SDS011;8065;49.520;11.284;2023-05-29T10:37:08;2.60;;;2.40;;
15931;SDS011;8065;49.520;11.284;2023-05-29T10:39:41;4.37;;;2.77;;
15931;SDS011;8065;49.520;11.284;2023-05-29T10:45:09;3.30;;;2.90;;
15931;SDS011;8065;49.520;11.284;2023-05-29T10:47:38;3.40;;;2.37;;
15931;SDS011;8065;49.520;11.284;2023-05-29T10:50:05;3.13;;;2.50;;
15931;SDS011;8065;49.520;11.284;2023-05-29T10:52:32;2.60;;;2.40;;
15931;SDS011;8065;49.520;11.284;2023-05-29T10:54:59;2.73;;;2.50;;
15931;SDS011;8065;49.520;11.284;2023-05-29T10:57:29;3.43;;;2.30;;
15931;SDS011;8065;49.520;11.284;2023-05-29T11:00:04;4.80;;;2.87;;
15931;SDS011;8065;49.520;11.284;2023-05-29T11:02:38;2.60;;;2.40;;
15931;SDS011;8065;49.520;11.284;2023-05-29T11:05:17;5.67;;;2.57;;
15931;SDS011;8065;49.520;11.284;2023-05-29T11:07:57;3.10;;;2.83;;
15931;SDS011;8065;49.520;11.284;2023-05-29T11:10:44;2.80;;;2.60;;
15931;SDS011;8065;49.520;11.284;2023-05-29T11:13:22;2.30;;;2.10;;
15931;SDS011;8065;49.520;11.284;2023-05-29T11:16:03;2.90;;;2.33;;
15931;SDS011;8065;49.520;11.284;2023-05-29T11:18:45;2.60;;;2.10;;
15931;SDS011;8065;49.520;11.284;2023-05-29T11:21:22;2.60;;;2.40;;
15931;SDS011;8065;49.520;11.284;2023-05-29T11:23:53;4.57;;;2.40;;
15931;SDS011;8065;49.520;11.284;2023-05-29T11:26:20;4.10;;;2.20;;
15931;SDS011;8065;49.520;11.284;2023-05-29T11:28:48;2.83;;;2.40;;
15931;SDS011;8065;49.520;11.284;2023-05-29T11:31:15;3.43;;;2.47;;
15931;SDS011;8065;49.520;11.284;2023-05-29T11:33:47;3.23;;;2.47;;
15931;SDS011;8065;49.520;11.284;2023-05-29T11:36:17;3.47;;;2.57;;
15931;SDS011;8065;49.520;11.284;2023-05-29T11:38:44;2.77;;;2.30;;
15931;SDS011;8065;49.520;11.284;2023-05-29T11:41:11;2.67;;;2.43;;
15931;SDS011;8065;49.520;11.284;2023-05-29T11:43:37;2.83;;;2.40;;
15931;SDS011;8065;49.520;11.284;2023-05-29T11:46:13;4.03;;;2.60;;
15931;SDS011;8065;49.520;11.284;2023-05-29T11:48:44;9.57;;;2.60;;
15931;SDS011;8065;49.520;11.284;2023-05-29T11:51:13;3.03;;;2.60;;
15931;SDS011;8065;49.520;11.284;2023-05-29T11:53:40;3.03;;;2.00;;
15931;SDS011;8065;49.520;11.284;2023-05-29T11:56:08;3.83;;;2.50;;
15931;SDS011;8065;49.520;11.284;2023-05-29T11:58:35;2.67;;;2.20;;
15931;SDS011;8065;49.520;11.284;2023-05-29T12:01:02;2.80;;;2.33;;
15931;SDS011;8065;49.520;11.284;2023-05-29T12:03:28;6.57;;;2.37;;
15931;SDS011;8065;49.520;11.284;2023-05-29T12:05:55;3.53;;;2.37;;
15931;SDS011;8065;49.520;11.284;2023-05-29T12:08:23;3.97;;;2.17;;
15931;SDS011;8065;49.520;11.284;2023-05-29T12:10:51;2.77;;;2.47;;
15931;SDS011;8065;49.520;11.284;2023-05-29T12:13:18;3.63;;;2.20;;
15931;SDS011;8065;49.520;11.284;2023-05-29T12:15:45;2.53;;;2.30;;
15931;SDS011;8065;49.520;11.284;2023-05-29T12:18:15;2.40;;;2.20;;
15931;SDS011;8065;49.520;11.284;2023-05-29T12:20:41;3.07;;;2.30;;
15931;SDS011;8065;49.520;11.284;2023-05-29T12:23:08;3.90;;;2.53;;
15931;SDS011;8065;49.520;11.284;2023-05-29T12:25:36;3.30;;;2.40;;
15931;SDS011;8065;49.520;11.284;2023-05-29T12:28:03;3.00;;;2.20;;
15931;SDS011;8065;49.520;11.284;2023-05-29T12:30:30;3.10;;;2.20;;
15931;SDS011;8065;49.520;11.284;2023-05-29T12:32:57;2.63;;;2.07;;
15931;SDS011;8065;49.520;11.284;2023-05-29T12:35:25;5.50;;;2.50;;
15931;SDS011;8065;49.520;11.284;2023-05-29T12:37:54;2.57;;;2.37;;
15931;SDS011;8065;49.520;11.284;2023-05-29T12:40:22;4.70;;;2.60;;
15931;SDS011;8065;49.520;11.284;2023-05-29T12:42:54;2.17;;;1.97;;
15931;SDS011;8065;49.520;11.284;2023-05-29T12:45:25;3.70;;;2.50;;
15931;SDS011;8065;49.520;11.284;2023-05-29T12:47:52;6.37;;;2.07;;
15931;SDS011;8065;49.520;11.284;2023-05-29T12:50:23;2.47;;;2.27;;
15931;SDS011;8065;49.520;11.284;2023-05-29T12:52:57;2.63;;;2.33;;
15931;SDS011;8065;49.520;11.284;2023-05-29T12:55:25;3.03;;;2.47;;
15931;SDS011;8065;49.520;11.284;2023-05-29T12:57:55;2.63;;;2.37;;
15931;SDS011;8065;49.520;11.284;2023-05-29T13:00:22;3.23;;;2.30;;
15931;SDS011;8065;49.520;11.284;2023-05-29T13:02:49;4.43;;;2.43;;
15931;SDS011;8065;49.520;11.284;2023-05-29T13:05:16;2.60;;;2.40;;
15931;SDS011;8065;49.520;11.284;2023-05-29T13:07:44;2.57;;;2.37;;
15931;SDS011;8065;49.520;11.284;2023-05-29T13:10:12;2.10;;;2.00;;
15931;SDS011;8065;49.520;11.284;2023-05-29T13:12:38;3.20;;;2.47;;
15931;SDS011;8065;49.520;11.284;2023-05-29T13:15:06;2.97;;;2.23;;
15931;SDS011;8065;49.520;11.284;2023-05-29T13:17:33;4.23;;;2.17;;
15931;SDS011;8065;49.520;11.284;2023-05-29T13:20:00;3.53;;;2.53;;
15931;SDS011;8065;49.520;11.284;2023-05-29T13:22:26;3.93;;;2.40;;
15931;SDS011;8065;49.520;11.284;2023-05-29T13:24:56;2.50;;;2.30;;
15931;SDS011;8065;49.520;11.284;2023-05-29T13:27:23;3.57;;;2.40;;
15931;SDS011;8065;49.520;11.284;2023-05-29T13:29:50;5.43;;;2.33;;
15931;SDS011;8065;49.520;11.284;2023-05-29T13:32:17;4.30;;;2.20;;
15931;SDS011;8065;49.520;11.284;2023-05-29T13:34:44;2.90;;;2.10;;
15931;SDS011;8065;49.520;11.284;2023-05-29T13:37:11;5.60;;;2.43;;
15931;SDS011;8065;49.520;11.284;2023-05-29T13:39:37;2.57;;;2.37;;
15931;SDS011;8065;49.520;11.284;2023-05-29T13:42:04;2.93;;;2.50;;
15931;SDS011;8065;49.520;11.284;2023-05-29T13:44:32;2.60;;;2.37;;
15931;SDS011;8065;49.520;11.284;2023-05-29T13:46:58;3.60;;;2.83;;
15931;SDS011;8065;49.520;11.284;2023-05-29T13:49:26;4.47;;;2.13;;
15931;SDS011;8065;49.520;11.284;2023-05-29T13:51:53;3.93;;;2.53;;
15931;SDS011;8065;49.520;11.284;2023-05-29T13:54:19;4.07;;;2.57;;
15931;SDS011;8065;49.520;11.284;2023-05-29T13:56:47;3.43;;;2.27;;
15931;SDS011;8065;49.520;11.284;2023-05-29T13:59:13;2.27;;;2.03;;
15931;SDS011;8065;49.520;11.284;2023-05-29T14:01:40;2.43;;;2.23;;
15931;SDS011;8065;49.520;11.284;2023-05-29T14:04:07;3.23;;;2.30;;
15931;SDS011;8065;49.520;11.284;2023-05-29T14:06:35;3.03;;;2.37;;
15931;SDS011;8065;49.520;11.284;2023-05-29T14:09:02;3.10;;;2.33;;
15931;SDS011;8065;49.520;11.284;2023-05-29T14:11:28;3.90;;;2.30;;
15931;SDS011;8065;49.520;11.284;2023-05-29T14:13:55;4.17;;;2.53;;
15931;SDS011;8065;49.520;11.284;2023-05-29T14:16:21;3.27;;;2.30;;
15931;SDS011;8065;49.520;11.284;2023-05-29T14:18:48;3.73;;;2.43;;
15931;SDS011;8065;49.520;11.284;2023-05-29T14:21:15;2.50;;;2.30;;
15931;SDS011;8065;49.520;11.284;2023-05-29T14:23:42;2.77;;;2.53;;
15931;SDS011;8065;49.520;11.284;2023-05-29T14:26:09;3.03;;;2.23;;
15931;SDS011;8065;49.520;11.284;2023-05-29T14:28:35;4.20;;;2.60;;
15931;SDS011;8065;49.520;11.284;2023-05-29T14:31:03;4.37;;;3.10;;
15931;SDS011;8065;49.520;11.284;2023-05-29T14:33:30;2.93;;;2.30;;
15931;SDS011;8065;49.520;11.284;2023-05-29T14:35:57;4.87;;;2.50;;
15931;SDS011;8065;49.520;11.284;2023-05-29T14:38:23;3.47;;;2.67;;
15931;SDS011;8065;49.520;11.284;2023-05-29T14:40:51;4.43;;;2.17;;
15931;SDS011;8065;49.520;11.284;2023-05-29T14:43:18;5.37;;;2.43;;
15931;SDS011;8065;49.520;11.284;2023-05-29T14:45:44;2.37;;;2.00;;
15931;SDS011;8065;49.520;11.284;2023-05-29T14:48:10;3.33;;;2.20;;
15931;SDS011;8065;49.520;11.284;2023-05-29T14:50:37;2.60;;;2.30;;
15931;SDS011;8065;49.520;11.284;2023-05-29T14:53:03;2.90;;;2.60;;
15931;SDS011;8065;49.520;11.284;2023-05-29T14:55:30;2.60;;;2.20;;